Kezdőlap
METAR-TAF:

METAR-TAF

Repülőterek :

Tongatapu, Tonga

földrajzi szélesség: 21-14S, földrajzi hosszúság: 175-09W, magasság: 38 m

Jelenlegi meteorológiai megfigyelések

A jelentés 1 órával és 21 perccel ezelõtt készült, 17:00 UTC
Kelet-délkeleti szél 8 kt
Hőmérséklet 21°C
Páratartalom 73%
Légköri nyomás 1017 hPa
Látótávolság 10 km, vagy több
Szórványos felhőzet 1600 lábon

METAR: NFTF 221700Z 12008KT 9999 SCT016 21/16 Q1017

Idő: 07:21 (18:21 UTC)

Előrejelzés

A jelentés 1 órával és 15 perccel ezelõtt készült, 17:06 UTC
Az előrejelzés 22-én 18 óra UTC és 23-én 18 óra UTC között érvényes
Délkeleti szél 8 kt
Látótávolság 10 km, vagy több
Szórványos felhőzet 1600 lábon

TAF: NFTF 221706Z 2218/2318 14008KT 9999 SCT016

Meteorológiai megfigyelések és előrejelzések több, mint 4000 repülőtéren (METAR és TAF jelentéseket).

A térképen piros és sárga pontok jelzik az elérhető meteorológiai állomásokat.

Mozgassa az egeret a pont fölött, hogy megjelenjen az állomás neve.

Azután kattintson az időjárási megfigyelések és előrejelzések megtekintéséhez.

A térkép megváltoztatása: kattintson a fekete keresztel jelölt zöld gombra ráközelítéshez, a vonallal jelölt zöld gombra távolításhoz, vagy a zöld nyilakra a szomszédos térképek eléréséhez.


METAR-TAF: